Time;durP1;ratioP1;P1;durP2;ratioP2;P2;SDS_P1;SDS_P2;PMS_P1;PMS_P2;Temp;Humidity;BMP_temperature;BMP_pressure;BME280_temperature;BME280_humidity;BME280_pressure;Samples;Min_cycle;Max_cycle;Signal;HPM_P1;HPM_P2
2022/03/20 00:01:09;;;;;;;6.25;3.35;;;4.80;99.90;;;;;;5108618;27;20429;-68
2022/03/20 00:03:36;;;;;;;9.88;3.80;;;4.80;99.90;;;;;;5107833;28;20039;-68
2022/03/20 00:06:03;;;;;;;6.68;3.28;;;4.80;99.90;;;;;;5108751;28;20410;-68
2022/03/20 00:08:30;;;;;;;9.70;3.60;;;4.80;99.90;;;;;;5108054;28;20460;-67
2022/03/20 00:10:59;;;;;;;7.35;3.33;;;4.70;99.90;;;;;;5109019;28;20040;-68
2022/03/20 00:13:27;;;;;;;8.38;3.85;;;4.80;99.90;;;;;;5113875;27;20132;-68
2022/03/20 00:15:54;;;;;;;9.40;3.45;;;4.70;99.90;;;;;;5107476;28;20049;-68
2022/03/20 00:18:23;;;;;;;8.70;3.67;;;4.70;99.90;;;;;;5108599;28;20044;-69
2022/03/20 00:20:53;;;;;;;6.68;3.42;;;4.70;99.90;;;;;;5105920;28;20114;-68
2022/03/20 00:23:19;;;;;;;10.68;3.65;;;4.70;99.90;;;;;;5109758;27;20043;-68
2022/03/20 00:25:46;;;;;;;9.55;3.67;;;4.70;99.90;;;;;;5089311;28;20043;-68
2022/03/20 00:28:15;;;;;;;8.18;3.25;;;4.70;99.90;;;;;;5107677;28;20112;-68
2022/03/20 00:30:41;;;;;;;10.05;3.25;;;4.60;99.90;;;;;;5107586;28;20046;-68
2022/03/20 00:33:07;;;;;;;11.68;4.25;;;4.70;99.90;;;;;;5107782;27;20083;-68
2022/03/20 00:35:33;;;;;;;6.65;3.53;;;4.60;99.90;;;;;;5116606;27;20390;-68
2022/03/20 00:37:59;;;;;;;6.65;3.67;;;4.60;99.90;;;;;;5107297;28;20042;-68
2022/03/20 00:40:25;;;;;;;10.55;4.03;;;4.60;99.90;;;;;;5106903;28;20521;-68
2022/03/20 00:42:52;;;;;;;7.55;3.65;;;4.60;99.90;;;;;;5105143;28;20478;-68
2022/03/20 00:45:18;;;;;;;9.63;4.10;;;4.60;99.90;;;;;;5121530;27;20048;-67
2022/03/20 00:47:44;;;;;;;11.40;3.72;;;4.60;99.90;;;;;;5106284;28;20039;-68
2022/03/20 00:50:10;;;;;;;7.25;3.42;;;4.60;99.90;;;;;;5106994;28;20044;-68
2022/03/20 00:52:36;;;;;;;12.45;3.97;;;4.50;99.90;;;;;;5108322;28;20048;-68
2022/03/20 00:55:02;;;;;;;8.82;3.97;;;4.50;99.90;;;;;;5099394;27;20051;-68
2022/03/20 00:57:28;;;;;;;17.33;4.38;;;4.50;99.90;;;;;;5107956;28;20044;-68
2022/03/20 00:59:54;;;;;;;11.25;4.50;;;4.50;99.90;;;;;;5106662;28;20491;-67
2022/03/20 01:02:20;;;;;;;7.13;3.90;;;4.50;99.90;;;;;;5107034;27;20036;-67
2022/03/20 01:04:46;;;;;;;7.47;4.03;;;4.50;99.90;;;;;;5108122;27;20397;-68
2022/03/20 01:07:12;;;;;;;6.70;4.00;;;4.50;99.90;;;;;;5107118;28;20054;-68
2022/03/20 01:09:38;;;;;;;9.10;4.47;;;4.40;99.90;;;;;;5108090;28;20109;-68
2022/03/20 01:12:08;;;;;;;7.10;3.80;;;4.40;99.90;;;;;;5105237;28;20123;-68
2022/03/20 01:14:34;;;;;;;13.18;4.65;;;4.40;99.90;;;;;;5127356;27;20588;-68
2022/03/20 01:17:01;;;;;;;13.63;4.43;;;4.40;99.90;;;;;;5105981;28;20070;-67
2022/03/20 01:19:27;;;;;;;14.07;4.20;;;4.40;99.90;;;;;;5107051;28;20040;-68
2022/03/20 01:21:54;;;;;;;10.75;4.40;;;4.40;99.90;;;;;;5105018;28;20032;-68
2022/03/20 01:24:22;;;;;;;13.38;4.57;;;4.30;99.90;;;;;;5108691;27;20036;-68
2022/03/20 01:26:48;;;;;;;11.45;4.53;;;4.30;99.90;;;;;;5107256;28;20393;-68
2022/03/20 01:29:14;;;;;;;12.02;4.60;;;4.30;99.90;;;;;;5106054;28;20039;-68
2022/03/20 01:31:40;;;;;;;11.70;3.75;;;4.30;99.90;;;;;;5108288;27;20087;-68
2022/03/20 01:34:06;;;;;;;6.93;3.53;;;4.20;99.90;;;;;;5107066;28;20473;-68
2022/03/20 01:36:32;;;;;;;7.57;3.85;;;4.20;99.90;;;;;;5105427;28;20067;-68
2022/03/20 01:38:58;;;;;;;9.02;3.70;;;4.20;99.90;;;;;;5105824;28;20070;-67
2022/03/20 01:41:24;;;;;;;8.15;3.70;;;4.20;99.90;;;;;;5110251;27;20496;-68
2022/03/20 01:43:59;;;;;;;9.10;4.28;;;4.20;99.90;;;;;;5089327;28;20039;-68
2022/03/20 01:46:25;;;;;;;8.50;4.20;;;4.20;99.90;;;;;;5087992;28;20050;-68
2022/03/20 01:48:50;;;;;;;10.55;4.85;;;4.20;99.90;;;;;;5105861;28;20409;-68
2022/03/20 01:51:17;;;;;;;11.45;4.80;;;4.20;99.90;;;;;;5103688;28;20043;-67
2022/03/20 01:53:48;;;;;;;15.98;5.55;;;4.20;99.90;;;;;;5108309;28;20048;-68
2022/03/20 01:56:14;;;;;;;17.65;6.10;;;4.10;99.90;;;;;;5105142;28;20046;-68
2022/03/20 01:58:40;;;;;;;13.10;5.47;;;4.10;99.90;;;;;;5122965;28;20047;-68
2022/03/20 02:01:05;;;;;;;13.60;5.55;;;4.10;99.90;;;;;;5107024;28;20039;-67
2022/03/20 02:03:31;;;;;;;11.57;5.05;;;4.00;99.90;;;;;;5138905;27;20058;-68
2022/03/20 02:06:01;;;;;;;10.73;5.35;;;4.00;99.90;;;;;;5105703;28;20110;-68
2022/03/20 02:08:30;;;;;;;9.00;5.43;;;4.10;99.90;;;;;;5105366;28;20417;-68
2022/03/20 02:10:55;;;;;;;14.38;5.47;;;4.10;99.90;;;;;;5107004;28;20048;-68
2022/03/20 02:13:23;;;;;;;13.52;5.85;;;4.00;99.90;;;;;;5104661;28;20047;-67
2022/03/20 02:15:50;;;;;;;13.82;5.15;;;4.00;99.90;;;;;;5107407;28;20047;-68
2022/03/20 02:18:16;;;;;;;14.10;6.38;;;4.00;99.90;;;;;;5103863;28;20067;-68
2022/03/20 02:20:48;;;;;;;13.35;6.70;;;4.00;99.90;;;;;;5107263;28;20399;-68
2022/03/20 02:23:15;;;;;;;11.43;6.60;;;4.00;99.90;;;;;;5113801;28;20047;-67
2022/03/20 02:25:48;;;;;;;14.85;6.40;;;3.90;99.90;;;;;;5105668;28;20123;-68
2022/03/20 02:28:15;;;;;;;11.13;6.38;;;3.90;99.90;;;;;;5109288;28;20043;-68
2022/03/20 02:30:41;;;;;;;13.80;7.20;;;4.00;99.90;;;;;;5111914;27;20481;-68
2022/03/20 02:33:07;;;;;;;17.90;6.18;;;3.90;99.90;;;;;;5111588;27;20047;-68
2022/03/20 02:35:33;;;;;;;13.93;6.85;;;3.90;99.90;;;;;;5125200;27;20043;-67
2022/03/20 02:37:59;;;;;;;14.15;7.00;;;3.90;99.90;;;;;;5110632;28;20044;-67
2022/03/20 02:40:25;;;;;;;15.38;6.03;;;3.90;99.90;;;;;;5109832;28;20043;-68
2022/03/20 02:42:54;;;;;;;13.73;4.95;;;3.90;99.90;;;;;;5111150;27;20054;-68
2022/03/20 02:45:30;;;;;;;21.73;7.80;;;3.90;99.90;;;;;;5109209;28;20047;-68
2022/03/20 02:48:01;;;;;;;14.45;6.70;;;3.80;99.90;;;;;;5108183;28;20044;-68
2022/03/20 02:50:32;;;;;;;9.48;4.82;;;3.80;99.90;;;;;;5109067;28;20419;-68
2022/03/20 02:53:13;;;;;;;10.60;6.47;;;3.80;99.90;;;;;;5110181;27;20068;-68
2022/03/20 02:55:41;;;;;;;9.68;6.68;;;3.80;99.90;;;;;;5097629;27;20050;-68
2022/03/20 02:58:10;;;;;;;14.23;6.85;;;3.80;99.90;;;;;;5110604;27;20039;-68
2022/03/20 03:00:37;;;;;;;14.73;5.88;;;3.80;99.90;;;;;;5108282;28;20082;-68
2022/03/20 03:03:04;;;;;;;14.73;7.18;;;3.70;99.90;;;;;;5112537;27;20054;-68
2022/03/20 03:05:31;;;;;;;15.73;7.22;;;3.70;99.90;;;;;;5108084;28;20035;-68
2022/03/20 03:11:01;;;;;;;12.23;7.15;;;3.70;99.90;;;;;;5109564;28;20055;-68
2022/03/20 03:13:26;;;;;;;11.77;6.70;;;3.60;99.90;;;;;;5108411;27;20086;-68
2022/03/20 03:16:03;;;;;;;15.10;7.47;;;3.60;99.90;;;;;;5110222;28;20095;-67
2022/03/20 03:18:30;;;;;;;12.75;7.50;;;3.60;99.90;;;;;;5108054;27;20092;-68
2022/03/20 03:20:56;;;;;;;12.13;7.50;;;3.60;99.90;;;;;;5110149;28;20547;-68
2022/03/20 03:23:24;;;;;;;16.15;7.60;;;3.50;99.90;;;;;;5114109;27;20044;-68
2022/03/20 03:25:50;;;;;;;15.30;8.32;;;3.50;99.90;;;;;;5116676;27;20512;-68
2022/03/20 03:28:17;;;;;;;11.68;6.43;;;3.60;99.90;;;;;;5109590;28;20032;-68
2022/03/20 03:30:45;;;;;;;16.42;7.43;;;3.50;99.90;;;;;;5108313;28;20040;-67
2022/03/20 03:33:12;;;;;;;12.30;7.18;;;3.60;99.90;;;;;;5108680;27;20051;-68
2022/03/20 03:35:41;;;;;;;12.18;5.90;;;3.50;99.90;;;;;;5107010;27;20126;-68
2022/03/20 03:38:18;;;;;;;19.92;8.98;;;3.50;99.90;;;;;;5110021;28;20046;-68
2022/03/20 03:40:47;;;;;;;15.52;8.38;;;3.50;99.90;;;;;;5107047;28;20104;-67
2022/03/20 03:43:15;;;;;;;14.02;7.45;;;3.40;99.90;;;;;;5109193;28;20039;-68
2022/03/20 03:45:43;;;;;;;12.43;7.57;;;3.30;99.90;;;;;;5110731;27;20043;-68
2022/03/20 03:48:10;;;;;;;17.73;8.35;;;3.40;99.90;;;;;;5106835;28;20043;-67
2022/03/20 03:50:37;;;;;;;15.02;7.50;;;3.30;99.90;;;;;;5108056;28;20400;-68
2022/03/20 03:53:04;;;;;;;16.58;9.13;;;3.30;99.90;;;;;;5123541;27;20075;-68
2022/03/20 03:55:31;;;;;;;15.68;8.68;;;3.30;99.90;;;;;;5108819;27;20048;-68
2022/03/20 03:57:58;;;;;;;12.77;7.32;;;3.20;99.90;;;;;;5108448;28;20035;-68
2022/03/20 04:00:24;;;;;;;17.17;8.32;;;3.20;99.90;;;;;;5108191;28;20054;-68
2022/03/20 04:02:50;;;;;;;18.83;8.52;;;3.20;99.90;;;;;;5109716;27;20051;-68
2022/03/20 04:05:19;;;;;;;18.27;8.80;;;3.20;99.90;;;;;;5107571;27;20477;-68
2022/03/20 04:07:47;;;;;;;13.18;8.27;;;3.20;99.90;;;;;;5108449;28;20047;-68
2022/03/20 04:10:15;;;;;;;15.20;7.78;;;3.10;99.90;;;;;;5107436;27;20406;-68
2022/03/20 04:12:42;;;;;;;16.15;8.13;;;3.10;99.90;;;;;;5108811;28;20040;-68
2022/03/20 04:15:09;;;;;;;17.48;8.57;;;3.10;99.90;;;;;;5108060;28;20119;-68
2022/03/20 04:17:35;;;;;;;17.85;7.32;;;3.00;99.90;;;;;;5093675;28;20055;-68
2022/03/20 04:20:01;;;;;;;17.33;8.18;;;3.00;99.90;;;;;;5108132;28;20248;-68
2022/03/20 04:22:28;;;;;;;15.18;8.68;;;3.00;99.90;;;;;;5107202;27;20468;-68
2022/03/20 04:24:54;;;;;;;16.05;8.48;;;3.00;99.90;;;;;;5108691;28;20413;-68
2022/03/20 04:27:20;;;;;;;14.70;8.48;;;2.90;99.90;;;;;;5109640;27;20050;-68
2022/03/20 04:29:46;;;;;;;19.20;8.73;;;2.90;99.90;;;;;;5107155;28;20534;-68
2022/03/20 04:32:13;;;;;;;17.02;8.50;;;2.90;99.90;;;;;;5107670;28;20071;-68
2022/03/20 04:34:41;;;;;;;12.95;8.00;;;2.90;99.90;;;;;;5108409;28;20047;-69
2022/03/20 04:37:08;;;;;;;13.43;8.65;;;2.90;99.90;;;;;;5096725;27;20071;-68
2022/03/20 04:39:35;;;;;;;15.73;9.18;;;2.80;99.90;;;;;;5107617;28;20048;-68
2022/03/20 04:42:01;;;;;;;20.17;9.70;;;2.80;99.90;;;;;;5108894;28;20036;-68
2022/03/20 04:44:27;;;;;;;19.70;10.00;;;2.70;99.90;;;;;;5105192;28;20443;-68
2022/03/20 04:46:53;;;;;;;16.67;9.07;;;2.70;99.90;;;;;;5109530;27;20035;-68
2022/03/20 05:00:21;;;;;;;17.40;10.00;;;2.70;99.90;;;;;;5107663;28;20107;-68
2022/03/20 05:02:48;;;;;;;9.98;6.80;;;2.70;99.90;;;;;;5106557;27;20100;-68
2022/03/20 05:05:16;;;;;;;19.83;9.15;;;2.70;99.90;;;;;;5107910;28;20032;-68
2022/03/20 05:07:43;;;;;;;18.13;10.02;;;2.70;99.90;;;;;;5096281;27;20440;-68
2022/03/20 05:15:42;;;;;;;20.23;9.90;;;2.70;99.90;;;;;;5105900;28;20044;-68
2022/03/20 05:18:08;;;;;;;16.77;10.27;;;2.60;99.90;;;;;;5107983;27;20044;-68
2022/03/20 05:20:34;;;;;;;14.95;8.98;;;2.70;99.90;;;;;;5114107;27;20040;-68
2022/03/20 05:23:00;;;;;;;21.58;10.73;;;2.60;99.90;;;;;;5088458;28;20080;-68
2022/03/20 05:25:28;;;;;;;20.92;10.80;;;2.50;99.90;;;;;;5108086;28;20043;-68
2022/03/20 05:27:57;;;;;;;20.20;9.77;;;2.50;99.90;;;;;;5087367;28;20523;-68
2022/03/20 05:30:24;;;;;;;16.85;10.38;;;2.50;99.90;;;;;;5115100;27;20035;-68
2022/03/20 05:32:50;;;;;;;20.00;10.25;;;2.50;99.90;;;;;;5104108;28;20054;-67
2022/03/20 05:35:16;;;;;;;21.20;8.63;;;2.50;99.90;;;;;;5106373;28;20047;-68
2022/03/20 05:37:45;;;;;;;18.48;10.68;;;2.50;99.90;;;;;;5106363;28;20523;-68
2022/03/20 05:40:12;;;;;;;16.63;11.15;;;2.50;99.90;;;;;;5113370;27;20039;-67
2022/03/20 05:42:38;;;;;;;19.08;12.13;;;2.50;99.90;;;;;;5105724;28;20481;-68
2022/03/20 05:45:05;;;;;;;19.05;11.18;;;2.50;99.90;;;;;;5106072;28;20136;-68
2022/03/20 05:47:32;;;;;;;18.10;10.85;;;2.50;99.90;;;;;;5106951;28;20051;-68
2022/03/20 05:50:02;;;;;;;20.02;10.93;;;2.50;99.90;;;;;;5111410;27;20118;-68
2022/03/20 05:52:31;;;;;;;22.27;10.80;;;2.60;99.90;;;;;;5106828;28;20547;-67
2022/03/20 05:55:00;;;;;;;20.48;11.82;;;2.50;99.90;;;;;;5105103;28;20051;-68
2022/03/20 06:00:19;;;;;;;16.95;10.93;;;2.60;99.90;;;;;;5110775;28;20854;-68
2022/03/20 06:02:45;;;;;;;20.45;10.90;;;2.60;99.90;;;;;;5105069;28;20159;-68
2022/03/20 06:05:12;;;;;;;23.05;10.68;;;2.60;99.90;;;;;;5077396;28;20398;-67
2022/03/20 06:07:43;;;;;;;17.40;10.30;;;2.70;99.90;;;;;;5104214;28;20104;-67
2022/03/20 06:10:15;;;;;;;19.42;12.25;;;2.70;99.90;;;;;;5108457;28;20051;-67
2022/03/20 06:12:42;;;;;;;27.90;10.90;;;2.70;99.90;;;;;;5087744;28;20486;-67
2022/03/20 06:15:08;;;;;;;19.02;10.38;;;2.70;99.90;;;;;;5105937;28;20079;-67
2022/03/20 06:17:42;;;;;;;20.02;11.27;;;2.70;99.90;;;;;;5106575;28;20521;-68
2022/03/20 06:20:09;;;;;;;24.48;11.68;;;2.70;99.90;;;;;;5104248;28;20043;-68
2022/03/20 06:22:36;;;;;;;20.38;9.13;;;2.70;99.90;;;;;;5107608;28;20039;-68
2022/03/20 06:25:04;;;;;;;18.33;11.48;;;2.80;99.90;;;;;;5105642;28;20067;-68
2022/03/20 06:27:44;;;;;;;19.63;11.30;;;2.80;99.90;;;;;;5106548;28;20051;-68
2022/03/20 06:30:11;;;;;;;23.23;10.88;;;2.90;99.90;;;;;;5107069;28;20054;-67
2022/03/20 06:35:14;;;;;;;24.70;12.02;;;3.00;99.90;;;;;;5090361;28;20052;-91
2022/03/20 06:37:44;;;;;;;21.30;11.65;;;3.00;99.90;;;;;;5057169;28;20048;-92
2022/03/20 06:40:11;;;;;;;16.42;10.32;;;3.40;99.90;;;;;;5074201;28;20048;-93
2022/03/20 06:42:37;;;;;;;24.90;11.80;;;3.40;99.90;;;;;;5101990;28;20266;-91
2022/03/20 06:45:07;;;;;;;19.58;10.07;;;3.90;99.90;;;;;;5059703;28;20071;-91
2022/03/20 06:47:33;;;;;;;24.75;12.38;;;3.80;99.90;;;;;;5084280;28;20055;-94
2022/03/20 06:50:00;;;;;;;18.38;11.57;;;3.80;99.90;;;;;;5061319;28;20384;-90
2022/03/20 06:52:28;;;;;;;20.67;12.32;;;4.10;99.90;;;;;;5073649;28;20100;-91
2022/03/20 06:54:57;;;;;;;21.85;11.35;;;3.60;99.90;;;;;;5073497;28;20047;-91
2022/03/20 06:57:23;;;;;;;20.65;10.50;;;3.50;99.90;;;;;;5064097;28;20105;-92
2022/03/20 06:59:49;;;;;;;19.63;11.73;;;3.50;99.90;;;;;;5080797;28;20043;-90
2022/03/20 07:02:18;;;;;;;21.98;12.55;;;3.50;99.90;;;;;;5073538;28;20134;-91
2022/03/20 07:04:47;;;;;;;21.25;11.57;;;3.70;99.90;;;;;;5073373;28;20051;-91
2022/03/20 07:07:17;;;;;;;20.42;9.15;;;3.60;99.90;;;;;;5073702;28;20044;-91
2022/03/20 07:09:43;;;;;;;18.17;11.20;;;3.70;99.90;;;;;;5073689;28;20039;-92
2022/03/20 07:12:10;;;;;;;18.35;10.60;;;3.70;99.90;;;;;;5040489;28;20036;-91
2022/03/20 07:14:36;;;;;;;21.00;11.68;;;3.80;99.90;;;;;;5077136;28;20051;-94
2022/03/20 07:17:07;;;;;;;21.98;11.80;;;3.80;99.90;;;;;;5060559;28;20118;-92
2022/03/20 07:19:35;;;;;;;20.55;11.82;;;3.90;99.90;;;;;;5077004;28;20124;-91
2022/03/20 07:22:01;;;;;;;17.77;9.90;;;4.10;99.90;;;;;;5060709;28;20054;-91
2022/03/20 07:24:29;;;;;;;19.05;10.32;;;4.00;99.90;;;;;;5079897;28;20182;-92
2022/03/20 07:29:39;;;;;;;19.65;11.38;;;4.20;99.90;;;;;;5079511;28;20105;-93
2022/03/20 07:32:09;;;;;;;26.95;12.05;;;4.20;99.90;;;;;;5060311;28;20561;-91
2022/03/20 07:34:37;;;;;;;21.20;11.85;;;4.30;99.90;;;;;;5076734;28;20056;-92
2022/03/20 07:37:07;;;;;;;22.23;9.38;;;4.40;99.90;;;;;;5076536;28;20496;-91
2022/03/20 07:39:34;;;;;;;24.83;12.00;;;4.40;99.90;;;;;;5077093;28;20113;-91
2022/03/20 07:41:59;;;;;;;21.00;11.52;;;4.50;99.90;;;;;;5059794;28;20055;-91
2022/03/20 07:44:26;;;;;;;22.15;11.32;;;4.50;99.90;;;;;;5060502;28;20044;-91
2022/03/20 07:46:55;;;;;;;18.88;10.65;;;4.70;99.90;;;;;;5060596;28;20041;-92
2022/03/20 07:49:21;;;;;;;15.90;11.10;;;4.70;99.90;;;;;;5084927;28;20040;-91
2022/03/20 07:51:47;;;;;;;21.02;11.80;;;4.70;99.90;;;;;;5091670;28;20970;-92
2022/03/20 07:54:14;;;;;;;25.15;12.73;;;4.80;99.90;;;;;;5086626;28;20048;-92
2022/03/20 07:56:41;;;;;;;18.85;11.93;;;5.00;99.90;;;;;;5066247;28;20036;-91
2022/03/20 07:59:08;;;;;;;19.33;9.93;;;5.00;99.90;;;;;;5073631;28;20095;-91
2022/03/20 08:01:34;;;;;;;16.27;9.75;;;5.00;99.90;;;;;;5076251;28;20051;-92
2022/03/20 08:04:01;;;;;;;21.33;10.77;;;5.00;99.90;;;;;;5074549;28;20051;-92
2022/03/20 08:06:27;;;;;;;18.20;9.05;;;5.00;99.90;;;;;;5069729;28;20040;-91
2022/03/20 08:08:53;;;;;;;19.15;11.70;;;5.10;99.90;;;;;;5073629;28;20044;-92
2022/03/20 08:11:19;;;;;;;19.42;8.30;;;5.20;99.90;;;;;;5074313;28;20373;-91
2022/03/20 08:13:46;;;;;;;22.48;11.65;;;5.30;99.90;;;;;;5074886;28;20051;-92
2022/03/20 08:16:19;;;;;;;19.38;12.02;;;5.40;99.90;;;;;;5076862;28;20137;-91
2022/03/20 08:18:45;;;;;;;9.15;5.80;;;5.40;99.90;;;;;;5056021;28;20037;-91
2022/03/20 08:21:13;;;;;;;38.38;12.15;;;5.50;99.90;;;;;;5071397;28;20048;-91
2022/03/20 08:23:40;;;;;;;23.27;12.85;;;5.60;99.90;;;;;;5058264;28;20072;-93
2022/03/20 08:26:08;;;;;;;21.88;11.98;;;5.70;99.90;;;;;;5067181;28;20043;-92
2022/03/20 08:28:47;;;;;;;15.77;7.75;;;5.80;99.90;;;;;;5046152;28;20048;-93
2022/03/20 08:31:14;;;;;;;22.55;12.35;;;5.80;99.90;;;;;;5069435;28;20037;-92
2022/03/20 08:33:40;;;;;;;17.42;9.30;;;5.90;99.90;;;;;;5074325;28;20084;-92
2022/03/20 08:36:07;;;;;;;21.70;11.25;;;6.00;99.90;;;;;;5058998;28;20051;-91
2022/03/20 08:38:34;;;;;;;21.95;11.43;;;6.00;99.90;;;;;;5075749;28;20050;-93
2022/03/20 08:41:01;;;;;;;13.80;7.90;;;6.10;99.90;;;;;;5075081;28;20111;-92
2022/03/20 08:43:26;;;;;;;21.17;11.43;;;6.20;99.90;;;;;;5058940;28;20059;-92
2022/03/20 08:45:52;;;;;;;21.17;11.27;;;6.20;99.90;;;;;;5058477;28;20400;-91
2022/03/20 08:48:18;;;;;;;20.35;10.13;;;6.20;99.90;;;;;;5058947;28;20143;-92
2022/03/20 08:50:48;;;;;;;22.40;9.35;;;6.30;99.90;;;;;;5058238;28;20476;-94
2022/03/20 08:53:18;;;;;;;14.27;8.18;;;6.40;99.90;;;;;;5075390;28;20070;-91
2022/03/20 08:55:49;;;;;;;15.23;9.00;;;6.40;99.90;;;;;;5075061;28;20040;-93
2022/03/20 08:58:15;;;;;;;19.67;10.43;;;6.50;99.90;;;;;;5075636;28;20062;-91
2022/03/20 09:00:41;;;;;;;31.60;11.70;;;6.70;99.90;;;;;;5075451;28;20475;-90
2022/03/20 09:03:07;;;;;;;21.15;12.02;;;6.90;99.90;;;;;;5057453;28;20059;-92
2022/03/20 09:05:33;;;;;;;18.67;10.52;;;7.00;99.90;;;;;;5077315;28;20055;-91
2022/03/20 09:08:00;;;;;;;18.83;10.50;;;6.80;98.60;;;;;;5074832;28;20044;-93
2022/03/20 09:10:26;;;;;;;14.07;8.00;;;6.90;96.60;;;;;;5077830;28;20048;-92
2022/03/20 09:12:57;;;;;;;23.95;12.48;;;6.90;99.90;;;;;;5074830;28;20080;-91
2022/03/20 09:15:24;;;;;;;21.02;11.82;;;7.10;98.20;;;;;;5059317;28;20097;-91
2022/03/20 09:20:37;;;;;;;13.77;6.75;;;7.10;92.50;;;;;;5103933;28;20075;-91
2022/03/20 09:23:06;;;;;;;13.02;7.18;;;7.10;93.20;;;;;;5076680;28;20044;-93
2022/03/20 09:25:32;;;;;;;13.38;7.50;;;7.20;93.60;;;;;;5074458;28;20062;-92
2022/03/20 09:27:58;;;;;;;13.13;9.65;;;7.20;93.40;;;;;;5052051;28;20471;-91
2022/03/20 09:30:24;;;;;;;15.07;9.15;;;7.40;95.20;;;;;;5057801;28;20047;-92
2022/03/20 09:32:50;;;;;;;18.70;12.50;;;7.50;93.10;;;;;;5064664;28;20048;-91
2022/03/20 09:35:17;;;;;;;22.05;13.20;;;7.50;94.00;;;;;;5057813;28;20047;-91
2022/03/20 09:37:43;;;;;;;22.58;11.25;;;7.60;95.50;;;;;;5053652;28;20047;-91
2022/03/20 09:40:10;;;;;;;16.40;10.07;;;7.80;92.90;;;;;;5059594;28;20093;-92
2022/03/20 09:42:38;;;;;;;14.68;8.45;;;7.90;89.90;;;;;;5074491;28;20036;-91
2022/03/20 09:45:11;;;;;;;25.85;13.25;;;7.90;92.20;;;;;;5057317;28;20109;-91
2022/03/20 09:47:39;;;;;;;22.38;13.02;;;8.00;90.70;;;;;;5089412;28;20354;-90
2022/03/20 09:50:06;;;;;;;20.33;10.27;;;8.00;92.60;;;;;;5057515;28;20499;-92
2022/03/20 09:52:34;;;;;;;10.88;6.82;;;8.20;91.40;;;;;;5057575;28;20048;-91
2022/03/20 09:55:00;;;;;;;12.63;7.82;;;8.30;91.50;;;;;;5073251;28;20036;-90
2022/03/20 09:57:28;;;;;;;12.57;7.85;;;8.40;88.60;;;;;;5073861;28;20516;-91
2022/03/20 09:59:55;;;;;;;14.55;7.20;;;8.40;81.10;;;;;;5073761;28;20040;-92
2022/03/20 10:02:24;;;;;;;11.10;6.18;;;8.50;90.20;;;;;;5055170;28;20032;-91
2022/03/20 10:05:00;;;;;;;13.18;6.88;;;8.60;84.50;;;;;;5048728;28;20122;-94
2022/03/20 10:07:29;;;;;;;18.92;7.93;;;8.50;80.30;;;;;;5069328;28;20058;-92
2022/03/20 10:10:17;;;;;;;18.00;9.15;;;8.50;80.70;;;;;;5053711;28;20056;-93
2022/03/20 10:12:59;;;;;;;26.60;10.40;;;8.40;84.30;;;;;;5071526;28;20044;-92
2022/03/20 10:15:38;;;;;;;30.38;14.95;;;8.70;86.10;;;;;;5071945;28;20040;-92
2022/03/20 10:18:24;;;;;;;14.77;8.57;;;8.70;80.50;;;;;;5072434;28;20142;-94
2022/03/20 10:20:52;;;;;;;15.50;8.93;;;8.70;81.30;;;;;;5073784;28;20100;-94
2022/03/20 10:23:45;;;;;;;20.25;12.27;;;8.70;80.70;;;;;;5073407;28;20098;-91
2022/03/20 10:26:22;;;;;;;14.02;8.30;;;8.90;81.60;;;;;;5073558;28;20239;-92
2022/03/20 10:28:52;;;;;;;20.55;11.70;;;9.00;84.90;;;;;;5080991;28;20086;-92
2022/03/20 10:31:22;;;;;;;13.68;8.27;;;9.00;76.70;;;;;;5074515;28;20075;-93
2022/03/20 10:34:07;;;;;;;17.48;11.52;;;8.90;78.60;;;;;;5074035;28;20503;-92
2022/03/20 10:36:34;;;;;;;24.27;13.82;;;9.10;83.50;;;;;;5074401;28;20106;-91
2022/03/20 10:39:00;;;;;;;14.95;8.02;;;9.20;78.90;;;;;;5073907;28;20055;-92
2022/03/20 10:41:49;;;;;;;23.95;13.32;;;9.20;79.80;;;;;;5074196;28;20044;-92
2022/03/20 10:44:18;;;;;;;22.63;13.35;;;9.10;75.40;;;;;;5073815;28;20550;-93
2022/03/20 10:47:12;;;;;;;19.25;11.23;;;9.20;74.20;;;;;;5073536;28;20052;-93
2022/03/20 10:49:41;;;;;;;21.27;11.13;;;9.50;79.20;;;;;;5068034;28;20123;-93
2022/03/20 10:52:08;;;;;;;28.70;15.25;;;9.40;76.30;;;;;;5076762;28;20558;-92
2022/03/20 10:54:52;;;;;;;17.85;8.65;;;9.40;77.00;;;;;;5077641;28;20128;-93
2022/03/20 10:57:21;;;;;;;18.77;8.02;;;9.40;76.60;;;;;;5079877;28;20059;-93
2022/03/20 11:00:01;;;;;;;17.67;9.88;;;9.40;70.60;;;;;;5077538;28;20181;-92
2022/03/20 11:02:27;;;;;;;29.40;15.18;;;9.50;79.70;;;;;;5069931;28;20052;-93
2022/03/20 11:04:55;;;;;;;32.95;10.05;;;9.70;77.70;;;;;;5044045;28;20056;-95
2022/03/20 11:07:23;;;;;;;21.42;12.15;;;9.70;74.00;;;;;;5061194;28;20416;-93
2022/03/20 11:09:54;;;;;;;18.48;10.10;;;9.60;70.20;;;;;;5067973;28;20040;-93
2022/03/20 11:12:33;;;;;;;14.85;9.10;;;9.80;71.40;;;;;;5098045;28;20043;-93
2022/03/20 11:15:07;;;;;;;24.58;12.85;;;9.90;71.50;;;;;;5064942;28;20044;-93
2022/03/20 11:17:45;;;;;;;12.60;7.15;;;10.00;65.20;;;;;;5077416;28;20040;-92
2022/03/20 11:20:16;;;;;;;17.98;10.43;;;10.00;66.00;;;;;;5076913;28;20040;-92
2022/03/20 11:22:50;;;;;;;23.33;14.75;;;10.00;64.90;;;;;;5072858;28;20044;-92
2022/03/20 11:25:29;;;;;;;26.38;14.75;;;10.10;65.50;;;;;;5077489;28;20085;-94
2022/03/20 11:28:01;;;;;;;19.42;11.05;;;10.10;62.70;;;;;;5073458;28;20056;-95
2022/03/20 11:30:30;;;;;;;17.10;9.48;;;10.30;67.00;;;;;;5061251;28;20043;-93
2022/03/20 11:33:00;;;;;;;15.37;9.17;;;10.20;64.10;;;;;;5073467;28;20060;-94
2022/03/20 11:35:30;;;;;;;15.65;7.55;;;10.30;68.20;;;;;;5059536;28;20118;-92
2022/03/20 11:38:11;;;;;;;17.95;8.98;;;10.30;64.20;;;;;;5075989;28;20048;-95
2022/03/20 11:40:40;;;;;;;;;;;10.40;59.10;;;;;;5083254;28;20044;-93
2022/03/20 11:43:21;;;;;;;20.50;11.77;;;10.40;64.20;;;;;;5059853;28;20027;-93
2022/03/20 11:46:12;;;;;;;16.25;7.53;;;10.50;61.50;;;;;;5077254;28;20047;-92
2022/03/20 11:48:38;;;;;;;14.23;8.45;;;10.50;61.60;;;;;;5074394;28;20043;-93
2022/03/20 11:51:07;;;;;;;16.65;9.40;;;10.60;59.60;;;;;;5074584;28;20677;-92
2022/03/20 11:53:37;;;;;;;21.67;10.95;;;10.50;61.20;;;;;;5058772;28;20491;-96
2022/03/20 11:56:03;;;;;;;24.83;14.40;;;10.60;66.90;;;;;;5072386;28;20032;-93
2022/03/20 11:58:36;;;;;;;18.77;10.57;;;10.80;65.60;;;;;;5074815;28;20040;-94
2022/03/20 12:01:20;;;;;;;19.00;8.93;;;11.00;65.80;;;;;;5080678;28;20042;-94
2022/03/20 12:04:03;;;;;;;22.83;13.70;;;11.00;69.70;;;;;;5077363;28;20105;-93
2022/03/20 12:07:27;;;;;;;26.58;13.35;;;11.10;57.50;;;;;;5091983;28;20044;-92
2022/03/20 12:10:08;;;;;;;18.48;11.32;;;11.10;67.70;;;;;;5029689;28;20050;-93
2022/03/20 12:13:14;;;;;;;14.98;9.30;;;11.30;57.00;;;;;;5091674;28;20060;-94
2022/03/20 12:15:45;;;;;;;15.00;8.48;;;11.40;59.50;;;;;;5042017;28;20051;-93
2022/03/20 12:18:15;;;;;;;18.27;9.88;;;11.30;55.30;;;;;;5076357;28;20044;-94
2022/03/20 12:21:03;;;;;;;22.73;12.05;;;11.20;50.90;;;;;;5105717;28;20055;-94
2022/03/20 12:23:51;;;;;;;12.00;6.53;;;11.20;57.20;;;;;;5063905;28;20102;-94
2022/03/20 12:26:44;;;;;;;24.83;11.57;;;11.20;54.50;;;;;;5075593;28;20052;-92
2022/03/20 12:29:38;;;;;;;22.35;11.63;;;11.20;63.10;;;;;;5078422;28;20043;-93
2022/03/20 12:32:20;;;;;;;18.92;11.07;;;11.30;53.40;;;;;;5061148;28;20047;-93
2022/03/20 12:35:08;;;;;;;20.67;12.38;;;11.30;50.60;;;;;;5076308;28;20059;-94
2022/03/20 12:37:55;;;;;;;11.68;8.02;;;11.30;50.00;;;;;;5076391;28;20125;-95
2022/03/20 12:44:29;;;;;;;21.15;7.65;;;11.40;46.10;;;;;;5084082;28;20070;-93
2022/03/20 12:46:59;;;;;;;14.35;7.97;;;11.50;54.50;;;;;;5073674;28;20521;-94
2022/03/20 12:49:27;;;;;;;9.02;5.72;;;11.70;53.50;;;;;;5059217;28;20049;-93
2022/03/20 12:52:03;;;;;;;22.67;12.02;;;11.50;51.00;;;;;;5080269;28;20058;-94
2022/03/20 12:54:31;;;;;;;17.02;8.85;;;11.20;44.00;;;;;;5087535;28;20043;-95
2022/03/20 12:57:03;;;;;;;20.10;11.30;;;11.00;54.70;;;;;;5048334;28;20047;-94
2022/03/20 12:59:31;;;;;;;21.17;11.65;;;10.90;48.70;;;;;;5062243;28;20054;-94
2022/03/20 13:02:05;;;;;;;16.67;8.48;;;11.10;53.60;;;;;;5076068;28;20074;-94
2022/03/20 13:04:43;;;;;;;;;;;;;;;;;;;;;
2022/03/20 13:08:03;;;;;;;;;;;;;;;;;;;;;
2022/03/20 13:10:50;;;;;;;;;;;;;;;;;;;;;
2022/03/20 13:13:40;;;;;;;;;;;;;;;;;;;;;
2022/03/20 13:16:27;;;;;;;16.48;7.95;;;11.90;45.50;;;;;;5083994;28;20094;-93
2022/03/20 13:19:03;;;;;;;;;;;;;;;;;;;;;
2022/03/20 13:21:57;;;;;;;;;;;;;;;;;;;;;
2022/03/20 13:25:17;;;;;;;26.58;11.63;;;11.70;43.50;;;;;;5079933;28;20040;-95
2022/03/20 13:28:25;;;;;;;;;;;;;;;;;;;;;
2022/03/20 13:31:15;;;;;;;;;;;;;;;;;;;;;
2022/03/20 13:34:17;;;;;;;9.60;6.60;;;11.80;47.30;;;;;;5087968;28;20148;-94
2022/03/20 13:37:10;;;;;;;;;;;;;;;;;;;;;
2022/03/20 13:39:56;;;;;;;;;;;;;;;;;;;;;
2022/03/20 13:42:39;;;;;;;;;;;;;;;;;;;;;
2022/03/20 13:45:30;;;;;;;;;;;;;;;;;;;;;
2022/03/20 13:48:31;;;;;;;;;;;;;;;;;;;;;
2022/03/20 13:51:48;;;;;;;;;;;;;;;;;;;;;
2022/03/20 13:54:39;;;;;;;;;;;;;;;;;;;;;